Time;durP1;ratioP1;P1;durP2;ratioP2;P2;SDS_P1;SDS_P2;PMS_P1;PMS_P2;Temp;Humidity;BMP_temperature;BMP_pressure;BME280_temperature;BME280_humidity;BME280_pressure;Samples;Min_cycle;Max_cycle;Signal;HPM_P1;HPM_P2
2022/01/06 00:00:24;;;;;;;15.98;6.05;;;9.00;99.90;;;;;;6246276;23;20327;-92
2022/01/06 00:02:50;;;;;;;7.88;3.45;;;9.00;99.90;;;;;;6247452;23;20000;-92
2022/01/06 00:05:16;;;;;;;6.03;2.15;;;8.90;99.90;;;;;;6247462;23;20004;-92
2022/01/06 00:07:42;;;;;;;3.90;1.92;;;8.70;99.90;;;;;;6247483;23;20058;-92
2022/01/06 00:10:12;;;;;;;2.95;1.58;;;8.70;99.90;;;;;;6247388;23;20489;-91
2022/01/06 08:57:37;;;;;;;51.38;22.40;;;2.80;99.90;;;;;;5038556;28;20428;-94
2022/01/06 09:00:06;;;;;;;43.75;22.38;;;2.70;99.90;;;;;;5032186;28;20058;-96
2022/01/06 09:02:32;;;;;;;39.50;19.95;;;2.80;99.90;;;;;;5033469;28;20026;-94
2022/01/06 09:04:59;;;;;;;35.42;17.98;;;3.00;99.90;;;;;;5033003;28;20029;-94
2022/01/06 09:07:25;;;;;;;45.53;19.98;;;3.00;99.90;;;;;;5031604;28;20399;-93
2022/01/06 09:09:54;;;;;;;31.50;15.15;;;3.30;99.90;;;;;;5031692;28;20033;-95
2022/01/06 09:12:29;;;;;;;30.73;16.33;;;3.40;99.90;;;;;;5031225;28;20093;-94
2022/01/06 09:14:55;;;;;;;33.20;15.82;;;3.40;99.90;;;;;;5031767;28;20028;-95
2022/01/06 09:47:38;;;;;;;55.15;25.27;;;2.90;99.90;;;;;;5115493;27;20381;-94
2022/01/06 09:50:09;;;;;;;58.80;26.38;;;2.80;99.90;;;;;;5121503;28;20027;-95
2022/01/06 09:52:34;;;;;;;63.67;27.70;;;2.80;99.90;;;;;;5115883;28;20024;-94
2022/01/06 09:55:03;;;;;;;61.88;25.95;;;3.00;99.90;;;;;;5133797;27;20019;-94
2022/01/06 09:57:33;;;;;;;53.00;22.83;;;3.20;99.90;;;;;;5133350;27;20020;-94
2022/01/06 09:59:58;;;;;;;54.13;22.05;;;3.40;99.90;;;;;;5133474;28;20019;-95
2022/01/06 10:02:36;;;;;;;42.45;20.48;;;3.50;99.90;;;;;;5133187;27;20347;-93
2022/01/06 10:05:03;;;;;;;42.20;19.60;;;3.60;99.90;;;;;;5133674;28;20110;-96
2022/01/06 10:55:12;;;;;;;53.13;24.35;;;3.00;99.90;;;;;;5167548;27;20376;-93
2022/01/06 10:57:50;;;;;;;48.35;23.40;;;3.10;99.90;;;;;;5121651;27;20089;-95
2022/01/06 11:00:18;;;;;;;53.35;25.15;;;3.30;99.90;;;;;;5139591;27;20046;-94
2022/01/06 11:02:50;;;;;;;44.65;22.73;;;3.40;99.90;;;;;;5135747;27;20054;-96
2022/01/06 11:05:16;;;;;;;36.97;19.98;;;3.70;99.90;;;;;;5118437;27;20055;-96
2022/01/06 11:07:42;;;;;;;41.47;20.27;;;3.80;99.90;;;;;;5135284;27;20028;-95
2022/01/06 11:16:19;;;;;;;36.30;18.35;;;4.10;99.90;;;;;;5139855;27;20076;-95
2022/01/06 11:18:56;;;;;;;36.80;18.08;;;4.40;99.90;;;;;;5115381;28;20081;-96
2022/01/06 11:21:39;;;;;;;30.73;17.45;;;4.40;99.90;;;;;;5115673;28;20027;-95
2022/01/06 11:24:16;;;;;;;26.83;14.27;;;4.40;99.90;;;;;;5115448;28;20110;-95
2022/01/06 11:26:55;;;;;;;29.42;15.02;;;4.30;99.90;;;;;;5116053;28;20034;-95
2022/01/06 11:29:30;;;;;;;29.83;14.85;;;4.30;99.90;;;;;;5115297;28;20404;-95
2022/01/06 11:31:57;;;;;;;32.90;16.52;;;4.40;99.90;;;;;;5115666;28;20111;-95
2022/01/06 11:34:23;;;;;;;29.67;15.95;;;4.60;99.90;;;;;;5115713;28;20039;-94
2022/01/06 11:36:51;;;;;;;30.20;15.88;;;4.50;99.90;;;;;;5115194;28;20030;-94
2022/01/06 11:39:34;;;;;;;28.83;16.13;;;4.60;99.90;;;;;;5115644;28;20015;-95
2022/01/06 11:42:22;;;;;;;33.53;16.77;;;4.50;99.90;;;;;;5115844;28;20068;-95
2022/01/06 11:44:51;;;;;;;34.83;17.77;;;4.50;99.90;;;;;;5115650;28;20046;-95
2022/01/06 11:47:35;;;;;;;32.17;17.58;;;4.60;99.90;;;;;;5115532;28;20031;-96
2022/01/06 11:50:24;;;;;;;32.08;16.77;;;4.70;99.90;;;;;;5116048;28;20035;-96
2022/01/06 11:53:00;;;;;;;34.08;16.42;;;4.90;99.90;;;;;;5115795;28;20119;-95
2022/01/06 11:55:33;;;;;;;30.55;15.65;;;5.00;99.90;;;;;;5117656;28;20015;-96
2022/01/06 11:58:09;;;;;;;29.13;15.93;;;5.00;99.90;;;;;;5117411;28;20024;-95
2022/01/06 12:00:37;;;;;;;29.27;14.68;;;4.90;99.90;;;;;;5118127;28;20103;-96
2022/01/06 12:03:06;;;;;;;34.13;17.88;;;4.80;99.90;;;;;;5116835;28;20106;-95
2022/01/06 12:05:52;;;;;;;35.75;18.13;;;4.80;99.90;;;;;;5106422;28;20047;-96
2022/01/06 12:08:20;;;;;;;35.42;18.63;;;4.90;99.90;;;;;;5101845;28;20136;-96
2022/01/06 12:10:50;;;;;;;31.73;14.38;;;4.80;99.90;;;;;;5101424;28;20078;-95
2022/01/06 12:13:18;;;;;;;28.90;15.45;;;4.60;99.90;;;;;;5101098;28;20118;-96
2022/01/06 12:15:55;;;;;;;35.55;17.73;;;4.50;99.90;;;;;;5080986;28;20026;-96
2022/01/06 12:18:26;;;;;;;34.60;17.17;;;4.40;99.90;;;;;;5081662;28;20013;-95
2022/01/06 12:20:54;;;;;;;35.33;17.40;;;4.30;99.90;;;;;;5080753;28;20028;-95
2022/01/06 12:24:08;;;;;;;33.78;16.77;;;4.30;99.90;;;;;;5080629;28;20028;-93
2022/01/06 12:26:47;;;;;;;40.50;21.05;;;4.10;99.90;;;;;;5080018;28;20398;-94
2022/01/06 12:29:14;;;;;;;53.25;24.20;;;4.10;99.90;;;;;;5091783;28;20020;-93
2022/01/06 12:31:42;;;;;;;53.40;23.42;;;4.30;99.90;;;;;;5096572;28;20522;-94
2022/01/06 12:34:10;;;;;;;57.20;25.02;;;4.30;99.90;;;;;;5079892;28;20024;-93
